createdAt,value
2018-07-07T00:00:40.943Z,0.00
2018-07-07T00:01:40.977Z,0.00
2018-07-07T00:02:41.011Z,0.00
2018-07-07T00:03:41.046Z,0.00
2018-07-07T00:04:41.080Z,0.00
2018-07-07T00:05:41.114Z,0.00
2018-07-07T00:06:41.148Z,0.00
2018-07-07T00:07:41.183Z,0.00
2018-07-07T00:08:41.218Z,0.00
2018-07-07T00:09:41.252Z,0.00
2018-07-07T00:10:41.287Z,0.00
2018-07-07T00:11:41.321Z,0.00
2018-07-07T00:12:41.356Z,0.00
2018-07-07T00:13:41.388Z,0.00
2018-07-07T00:14:41.430Z,0.00
2018-07-07T00:15:41.458Z,0.00
2018-07-07T00:16:41.495Z,0.00
2018-07-07T00:17:41.525Z,0.00
2018-07-07T00:18:41.560Z,0.00
2018-07-07T00:19:41.597Z,0.00
2018-07-07T00:20:41.629Z,0.00
2018-07-07T00:21:41.663Z,0.00
2018-07-07T00:22:41.700Z,0.00
2018-07-07T00:23:41.731Z,0.00
2018-07-07T00:24:41.767Z,0.00
2018-07-07T00:25:41.800Z,0.00
2018-07-07T00:26:41.834Z,0.00
2018-07-07T00:27:41.877Z,0.00
2018-07-07T00:28:41.904Z,0.00
2018-07-07T00:29:41.938Z,0.00
2018-07-07T00:30:41.972Z,0.00
2018-07-07T00:31:42.006Z,0.00
2018-07-07T00:32:42.041Z,0.00
2018-07-07T00:33:42.077Z,0.00
2018-07-07T00:34:42.113Z,0.00
2018-07-07T00:35:42.142Z,0.00
2018-07-07T00:36:42.177Z,0.00
2018-07-07T00:37:42.212Z,0.00
2018-07-07T00:38:42.245Z,0.00
2018-07-07T00:39:42.281Z,0.00
2018-07-07T00:40:42.315Z,0.00
2018-07-07T00:41:42.349Z,0.00
2018-07-07T00:42:42.382Z,0.00
2018-07-07T00:43:42.417Z,0.00
2018-07-07T00:44:42.451Z,0.00
2018-07-07T00:45:42.485Z,0.00
2018-07-07T00:46:42.519Z,0.00
2018-07-07T00:47:42.554Z,0.00
2018-07-07T00:48:42.589Z,0.00
2018-07-07T00:49:42.622Z,0.00
2018-07-07T00:50:42.656Z,0.00
2018-07-07T00:51:42.691Z,0.00
2018-07-07T00:52:42.725Z,0.00
2018-07-07T00:53:42.758Z,0.00
2018-07-07T00:54:42.792Z,0.00
2018-07-07T00:55:42.827Z,0.00
2018-07-07T00:56:42.861Z,0.00
2018-07-07T00:57:42.894Z,0.00
2018-07-07T00:58:42.979Z,0.00
2018-07-07T00:59:42.964Z,0.00
2018-07-07T01:00:42.998Z,0.00
2018-07-07T01:01:43.032Z,0.00
2018-07-07T01:02:43.065Z,0.00
2018-07-07T01:03:43.100Z,0.00
2018-07-07T01:04:43.134Z,0.00
2018-07-07T01:05:43.167Z,0.00
2018-07-07T01:06:43.205Z,0.00
2018-07-07T01:07:43.236Z,0.00
2018-07-07T01:08:43.272Z,0.00
2018-07-07T01:09:43.308Z,0.00
2018-07-07T01:10:43.338Z,0.00
2018-07-07T01:11:43.374Z,0.00
2018-07-07T01:12:43.407Z,0.00
2018-07-07T01:13:43.442Z,0.00
2018-07-07T01:14:43.475Z,0.00
2018-07-07T01:15:43.509Z,0.00
2018-07-07T01:16:43.544Z,0.00
2018-07-07T01:17:43.578Z,0.00
2018-07-07T01:18:43.611Z,0.00
2018-07-07T01:19:43.645Z,0.00
2018-07-07T01:20:43.680Z,0.00
2018-07-07T01:21:43.716Z,0.00
2018-07-07T01:22:43.747Z,0.00
2018-07-07T01:23:43.782Z,0.00
2018-07-07T01:24:43.818Z,0.00
2018-07-07T01:25:43.851Z,0.00
2018-07-07T01:26:43.884Z,0.00
2018-07-07T01:27:43.919Z,0.00
2018-07-07T01:28:43.953Z,0.00
2018-07-07T01:29:43.985Z,0.00
2018-07-07T01:30:44.021Z,0.00
2018-07-07T01:31:44.054Z,0.00
2018-07-07T01:32:44.101Z,0.00
2018-07-07T01:33:44.122Z,0.00
2018-07-07T01:34:44.157Z,0.00
2018-07-07T01:35:44.191Z,0.00
2018-07-07T01:36:44.226Z,0.00
2018-07-07T01:37:44.281Z,0.00
2018-07-07T01:38:44.292Z,0.00
2018-07-07T01:39:44.325Z,0.00
2018-07-07T01:40:44.361Z,0.00
2018-07-07T01:41:44.394Z,0.00
2018-07-07T01:42:44.428Z,0.00
2018-07-07T01:43:44.463Z,0.00
2018-07-07T01:44:44.496Z,0.00
2018-07-07T01:45:44.529Z,0.00
2018-07-07T01:46:44.563Z,0.00
2018-07-07T01:47:44.597Z,0.00
2018-07-07T01:48:44.705Z,0.00
2018-07-07T01:49:44.668Z,0.00
2018-07-07T01:50:44.700Z,0.00
2018-07-07T01:51:44.733Z,0.00
2018-07-07T01:52:44.772Z,0.00
2018-07-07T01:53:44.800Z,0.00
2018-07-07T01:54:44.834Z,0.00
2018-07-07T01:55:44.869Z,0.00
2018-07-07T01:56:44.902Z,0.00
2018-07-07T01:57:44.938Z,0.00
2018-07-07T01:58:44.970Z,0.00
2018-07-07T01:59:45.004Z,0.00
2018-07-07T02:00:45.042Z,0.00
2018-07-07T02:01:45.071Z,0.00
2018-07-07T02:02:45.104Z,0.00
2018-07-07T02:03:45.139Z,0.00
2018-07-07T02:04:45.174Z,0.00
2018-07-07T02:05:45.207Z,0.00
2018-07-07T02:06:45.241Z,0.00
2018-07-07T02:07:45.274Z,0.00
2018-07-07T02:08:45.309Z,0.00
2018-07-07T02:09:45.342Z,0.00
2018-07-07T02:10:45.375Z,0.00
2018-07-07T02:11:45.411Z,0.00
2018-07-07T02:12:45.445Z,0.00
2018-07-07T02:13:45.477Z,0.00
2018-07-07T02:14:45.511Z,0.00
2018-07-07T02:15:45.546Z,0.00
2018-07-07T02:16:45.580Z,0.00
2018-07-07T02:17:45.613Z,0.00
2018-07-07T02:18:45.703Z,0.00
2018-07-07T02:19:45.680Z,0.00
2018-07-07T02:20:45.714Z,0.00
2018-07-07T02:21:45.750Z,0.00
2018-07-07T02:22:45.781Z,0.00
2018-07-07T02:23:45.815Z,0.00
2018-07-07T02:24:45.851Z,0.00
2018-07-07T02:25:45.887Z,0.00
2018-07-07T02:26:45.917Z,0.00
2018-07-07T02:32:35.267Z,0.00
2018-07-07T02:33:35.301Z,0.00
2018-07-07T02:34:35.333Z,0.00
2018-07-07T02:35:35.368Z,0.00
2018-07-07T02:36:35.405Z,0.00
2018-07-07T02:37:35.438Z,0.00
2018-07-07T02:38:35.467Z,0.00
2018-07-07T02:39:35.502Z,0.00
2018-07-07T02:40:35.536Z,0.00
2018-07-07T02:41:35.570Z,0.00
2018-07-07T02:42:35.603Z,0.00
2018-07-07T02:43:35.637Z,0.00
2018-07-07T02:44:35.671Z,0.00
2018-07-07T02:45:35.709Z,0.00
2018-07-07T02:46:35.738Z,0.00
2018-07-07T02:47:35.773Z,0.00
2018-07-07T02:48:35.805Z,0.00
2018-07-07T02:49:35.840Z,0.00
2018-07-07T02:50:35.873Z,0.00
2018-07-07T02:51:35.907Z,0.00
2018-07-07T02:52:35.941Z,0.00
2018-07-07T02:53:35.978Z,0.00
2018-07-07T02:54:36.008Z,0.00
2018-07-07T02:55:36.044Z,0.00
2018-07-07T02:56:36.076Z,0.00
2018-07-07T02:57:36.110Z,0.00
2018-07-07T02:58:36.142Z,0.00
2018-07-07T02:59:36.189Z,4.00
2018-07-07T03:00:36.211Z,4.00
2018-07-07T03:01:36.245Z,0.00
2018-07-07T03:02:36.284Z,0.00
2018-07-07T03:03:36.312Z,4.00
2018-07-07T03:04:36.346Z,0.00
2018-07-07T03:05:36.380Z,4.00
2018-07-07T03:06:36.412Z,8.00
2018-07-07T03:07:36.447Z,4.00
2018-07-07T03:08:36.480Z,4.00
2018-07-07T03:09:36.514Z,8.00
2018-07-07T03:10:36.548Z,8.00
2018-07-07T03:11:36.583Z,8.00
2018-07-07T03:12:36.616Z,8.00
2018-07-07T03:13:36.649Z,12.00
2018-07-07T03:14:36.684Z,16.00
2018-07-07T03:16:36.750Z,16.00
2018-07-07T03:18:36.816Z,24.00
2018-07-07T03:19:36.851Z,24.00
2018-07-07T03:20:36.884Z,28.00
2018-07-07T03:21:36.919Z,28.00
2018-07-07T03:22:36.952Z,36.00
2018-07-07T03:23:36.988Z,40.00
2018-07-07T03:24:37.018Z,48.00
2018-07-07T03:25:37.053Z,52.00
2018-07-07T03:26:37.086Z,56.00
2018-07-07T03:27:37.119Z,64.00
2018-07-07T03:28:37.159Z,72.00
2018-07-07T03:29:37.188Z,76.00
2018-07-07T03:30:37.221Z,84.00
2018-07-07T03:31:37.256Z,96.00
2018-07-07T03:32:37.288Z,108.00
2018-07-07T03:33:37.323Z,120.00
2018-07-07T03:34:37.357Z,132.00
2018-07-07T03:35:37.389Z,140.00
2018-07-07T03:36:37.423Z,152.00
2018-07-07T03:37:37.456Z,164.00
2018-07-07T03:38:37.490Z,188.00
2018-07-07T03:39:37.524Z,212.00
2018-07-07T03:40:37.557Z,232.00
2018-07-07T03:41:37.591Z,252.00
2018-07-07T03:42:37.624Z,272.00
2018-07-07T03:43:37.658Z,292.00
2018-07-07T03:44:37.691Z,312.00
2018-07-07T03:45:37.728Z,332.00
2018-07-07T03:46:37.757Z,348.00
2018-07-07T03:47:37.792Z,368.00
2018-07-07T03:48:37.832Z,396.00
2018-07-07T03:49:37.859Z,416.00
2018-07-07T03:50:37.893Z,444.00
2018-07-07T03:51:37.926Z,472.00
2018-07-07T03:52:37.962Z,500.00
2018-07-07T03:53:37.994Z,524.00
2018-07-07T03:54:38.027Z,560.00
2018-07-07T03:55:38.061Z,596.00
2018-07-07T03:56:38.096Z,628.00
2018-07-07T03:57:38.129Z,660.00
2018-07-07T03:58:38.161Z,684.00
2018-07-07T03:59:38.241Z,720.00
2018-07-07T04:00:38.229Z,760.00
2018-07-07T04:01:38.263Z,808.00
2018-07-07T04:02:38.296Z,856.00
2018-07-07T04:03:38.330Z,908.00
2018-07-07T04:04:38.363Z,964.00
2018-07-07T04:05:38.397Z,1012.00
2018-07-07T04:06:38.431Z,1056.00
2018-07-07T04:07:38.464Z,1112.00
2018-07-07T04:08:38.498Z,1156.00
2018-07-07T04:09:38.532Z,1200.00
2018-07-07T04:10:38.565Z,1244.00
2018-07-07T04:11:38.598Z,1280.00
2018-07-07T04:12:38.632Z,1316.00
2018-07-07T04:13:38.666Z,1364.00
2018-07-07T04:14:38.702Z,1420.00
2018-07-07T04:15:38.735Z,1476.00
2018-07-07T04:16:38.769Z,1532.00
2018-07-07T04:17:38.801Z,1604.00
2018-07-07T04:18:38.832Z,1652.00
2018-07-07T04:19:38.867Z,1688.00
2018-07-07T04:20:38.901Z,1740.00
2018-07-07T04:21:38.934Z,1808.00
2018-07-07T04:22:38.967Z,1892.00
2018-07-07T04:23:39.001Z,1968.00
2018-07-07T04:24:39.035Z,2072.00
2018-07-07T04:25:39.069Z,2100.00
2018-07-07T04:26:39.107Z,2088.00
2018-07-07T04:27:39.136Z,2156.00
2018-07-07T04:28:39.169Z,2272.00
2018-07-07T04:29:39.206Z,2324.00
2018-07-07T04:30:39.289Z,2440.00
2018-07-07T04:31:39.271Z,2500.00
2018-07-07T04:32:39.307Z,2520.00
2018-07-07T04:33:39.338Z,2580.00
2018-07-07T04:34:39.371Z,2656.00
2018-07-07T04:35:39.405Z,2700.00
2018-07-07T04:37:39.473Z,2880.00
2018-07-07T04:38:39.507Z,2956.00
2018-07-07T04:39:39.541Z,2948.00
2018-07-07T04:40:39.575Z,2928.00
2018-07-07T04:41:39.609Z,2892.00
2018-07-07T04:42:39.642Z,3004.00
2018-07-07T04:43:39.676Z,3076.00
2018-07-07T04:44:39.708Z,3048.00
2018-07-07T04:45:39.744Z,3028.00
2018-07-07T04:46:39.779Z,3120.00
2018-07-07T04:47:39.815Z,3252.00
2018-07-07T04:48:39.845Z,3268.00
2018-07-07T04:49:39.879Z,3368.00
2018-07-07T04:50:39.913Z,3448.00
2018-07-07T04:51:39.947Z,3432.00
2018-07-07T04:52:39.981Z,3400.00
2018-07-07T04:53:40.016Z,3412.00
2018-07-07T04:54:40.048Z,3416.00
2018-07-07T04:55:40.087Z,3468.00
2018-07-07T04:56:40.118Z,3548.00
2018-07-07T04:57:40.151Z,3652.00
2018-07-07T04:58:40.184Z,3740.00
2018-07-07T04:59:40.217Z,3780.00
2018-07-07T05:00:40.253Z,3652.00
2018-07-07T05:01:40.287Z,3512.00
2018-07-07T05:02:40.320Z,3460.00
2018-07-07T05:03:40.354Z,3460.00
2018-07-07T05:04:40.388Z,3536.00
2018-07-07T05:05:40.423Z,3624.00
2018-07-07T05:06:40.456Z,3668.00
2018-07-07T05:07:40.490Z,3700.00
2018-07-07T05:08:40.525Z,3740.00
2018-07-07T05:09:40.558Z,3784.00
2018-07-07T05:10:40.591Z,3848.00
2018-07-07T05:11:40.627Z,3944.00
2018-07-07T05:12:40.661Z,4028.00
2018-07-07T05:13:40.695Z,4124.00
2018-07-07T05:14:40.732Z,4308.00
2018-07-07T05:16:13.972Z,4580.00
2018-07-07T05:16:40.796Z,4856.00
2018-07-07T05:17:40.832Z,5104.00
2018-07-07T05:18:41.067Z,5280.00
2018-07-07T05:19:40.899Z,5344.00
2018-07-07T05:20:40.933Z,5200.00
2018-07-07T05:21:40.969Z,4924.00
2018-07-07T05:22:41.001Z,4724.00
2018-07-07T05:23:41.037Z,4584.00
2018-07-07T05:24:41.070Z,4480.00
2018-07-07T05:25:41.106Z,4408.00
2018-07-07T05:26:41.138Z,4364.00
2018-07-07T05:28:41.208Z,4344.00
2018-07-07T05:29:41.244Z,4356.00
2018-07-07T05:30:41.276Z,4056.00
2018-07-07T05:31:41.361Z,3848.00
2018-07-07T05:32:41.345Z,3836.00
2018-07-07T05:33:41.379Z,3908.00
2018-07-07T05:34:41.413Z,4024.00
2018-07-07T05:35:41.448Z,4144.00
2018-07-07T05:36:41.483Z,4280.00
2018-07-07T05:37:41.517Z,4748.00
2018-07-07T05:38:41.551Z,4764.00
2018-07-07T05:39:41.586Z,4780.00
2018-07-07T05:40:41.620Z,4776.00
2018-07-07T05:41:41.654Z,4752.00
2018-07-07T05:42:41.688Z,4720.00
2018-07-07T05:43:41.723Z,4696.00
2018-07-07T05:44:41.757Z,4688.00
2018-07-07T05:45:41.792Z,4696.00
2018-07-07T05:46:41.828Z,4700.00
2018-07-07T05:47:41.860Z,4732.00
2018-07-07T05:48:41.895Z,4756.00
2018-07-07T05:49:41.930Z,4792.00
2018-07-07T05:50:41.964Z,4836.00
2018-07-07T05:51:41.998Z,4900.00
2018-07-07T05:52:42.034Z,4988.00
2018-07-07T05:53:42.068Z,5092.00
2018-07-07T05:54:42.101Z,5180.00
2018-07-07T05:55:42.138Z,5200.00
2018-07-07T05:56:42.171Z,5196.00
2018-07-07T05:57:42.206Z,5188.00
2018-07-07T05:58:42.238Z,5188.00
2018-07-07T05:59:42.276Z,5200.00
2018-07-07T06:00:42.309Z,5212.00
2018-07-07T06:01:42.351Z,5228.00
2018-07-07T06:02:42.377Z,5260.00
2018-07-07T06:03:42.412Z,5296.00
2018-07-07T06:04:42.447Z,5324.00
2018-07-07T06:05:42.481Z,5352.00
2018-07-07T06:06:42.517Z,5376.00
2018-07-07T06:07:42.551Z,5392.00
2018-07-07T06:08:42.589Z,5428.00
2018-07-07T06:09:42.621Z,5456.00
2018-07-07T06:10:42.656Z,5460.00
2018-07-07T06:11:42.691Z,5472.00
2018-07-07T06:12:42.726Z,5496.00
2018-07-07T06:13:42.762Z,5500.00
2018-07-07T06:14:42.795Z,5524.00
2018-07-07T06:15:42.832Z,5544.00
2018-07-07T06:16:42.866Z,5584.00
2018-07-07T06:17:42.901Z,5616.00
2018-07-07T06:18:42.935Z,5640.00
2018-07-07T06:19:42.973Z,5664.00
2018-07-07T06:20:43.007Z,5684.00
2018-07-07T06:21:43.043Z,5716.00
2018-07-07T06:22:43.077Z,5752.00
2018-07-07T06:23:43.112Z,5784.00
2018-07-07T06:24:43.148Z,5824.00
2018-07-07T06:25:43.183Z,5860.00
2018-07-07T06:26:43.228Z,5880.00
2018-07-07T06:27:43.254Z,5904.00
2018-07-07T06:28:43.289Z,5924.00
2018-07-07T06:29:43.325Z,5964.00
2018-07-07T06:30:43.359Z,6004.00
2018-07-07T06:31:43.396Z,6044.00
2018-07-07T06:32:43.432Z,6088.00
2018-07-07T06:33:43.467Z,6116.00
2018-07-07T06:34:43.503Z,6140.00
2018-07-07T06:35:43.537Z,6168.00
2018-07-07T06:36:43.575Z,6196.00
2018-07-07T06:37:43.612Z,6216.00
2018-07-07T06:38:43.644Z,6244.00
2018-07-07T06:39:43.680Z,6288.00
2018-07-07T06:40:43.716Z,6324.00
2018-07-07T06:41:43.754Z,6336.00
2018-07-07T06:42:43.786Z,6364.00
2018-07-07T06:43:43.840Z,6384.00
2018-07-07T06:44:43.860Z,6408.00
2018-07-07T06:45:43.896Z,6440.00
2018-07-07T06:46:43.931Z,6472.00
2018-07-07T06:47:43.968Z,6500.00
2018-07-07T06:48:44.004Z,6528.00
2018-07-07T06:49:44.042Z,6580.00
2018-07-07T06:50:44.075Z,6624.00
2018-07-07T06:51:44.113Z,6684.00
2018-07-07T06:52:44.148Z,6732.00
2018-07-07T06:53:44.237Z,6768.00
2018-07-07T06:54:44.220Z,6788.00
2018-07-07T06:55:44.256Z,6812.00
2018-07-07T06:56:44.293Z,6832.00
2018-07-07T06:57:44.329Z,6860.00
2018-07-07T06:58:44.364Z,6884.00
2018-07-07T06:59:44.417Z,6916.00
2018-07-07T07:00:44.437Z,6964.00
2018-07-07T07:01:44.517Z,7024.00
2018-07-07T07:02:44.509Z,7076.00
2018-07-07T07:03:44.547Z,7116.00
2018-07-07T07:04:44.583Z,7172.00
2018-07-07T07:05:44.620Z,7204.00
2018-07-07T07:06:44.657Z,7252.00
2018-07-07T07:07:44.691Z,7300.00
2018-07-07T07:08:44.728Z,7360.00
2018-07-07T07:09:44.766Z,7400.00
2018-07-07T07:10:44.801Z,7452.00
2018-07-07T07:11:44.839Z,7492.00
2018-07-07T07:12:44.875Z,7532.00
2018-07-07T07:13:44.916Z,7564.00
2018-07-07T07:14:44.949Z,7588.00
2018-07-07T07:15:44.986Z,7632.00
2018-07-07T07:16:45.026Z,7680.00
2018-07-07T07:17:45.060Z,7736.00
2018-07-07T07:18:45.096Z,7788.00
2018-07-07T07:19:45.132Z,7840.00
2018-07-07T07:20:45.171Z,7892.00
2018-07-07T07:21:45.208Z,7940.00
2018-07-07T07:22:45.242Z,7984.00
2018-07-07T07:23:45.281Z,8032.00
2018-07-07T07:24:45.318Z,8092.00
2018-07-07T07:25:45.356Z,8144.00
2018-07-07T07:26:45.392Z,8200.00
2018-07-07T07:27:45.429Z,8260.00
2018-07-07T07:28:45.469Z,8324.00
2018-07-07T07:29:45.503Z,8396.00
2018-07-07T07:30:45.542Z,8476.00
2018-07-07T07:31:45.579Z,8564.00
2018-07-07T07:32:45.615Z,8664.00
2018-07-07T07:33:45.652Z,8764.00
2018-07-07T07:34:45.689Z,8864.00
2018-07-07T07:35:45.727Z,8940.00
2018-07-07T07:36:45.852Z,9020.00
2018-07-07T07:37:45.802Z,9116.00
2018-07-07T07:38:45.839Z,9192.00
2018-07-07T07:39:45.876Z,9248.00
2018-07-07T07:40:45.913Z,9316.00
2018-07-07T07:41:45.951Z,9376.00
2018-07-07T07:42:45.987Z,9460.00
2018-07-07T07:43:46.026Z,9536.00
2018-07-07T07:44:46.063Z,9592.00
2018-07-07T07:45:46.101Z,9652.00
2018-07-07T07:46:46.141Z,9700.00
2018-07-07T07:47:46.174Z,9764.00
2018-07-07T07:48:46.213Z,9836.00
2018-07-07T07:49:46.251Z,9908.00
2018-07-07T07:50:46.289Z,9976.00
2018-07-07T07:51:46.326Z,10024.00
2018-07-07T07:52:46.398Z,10072.00
2018-07-07T07:53:46.401Z,10108.00
2018-07-07T07:54:46.439Z,10152.00
2018-07-07T07:55:46.477Z,10180.00
2018-07-07T07:56:46.515Z,10216.00
2018-07-07T07:57:46.553Z,10244.00
2018-07-07T07:58:46.590Z,10276.00
2018-07-07T07:59:46.628Z,10328.00
2018-07-07T08:00:46.666Z,10384.00
2018-07-07T08:01:46.705Z,10440.00
2018-07-07T08:02:46.742Z,10472.00
2018-07-07T08:03:46.781Z,10496.00
2018-07-07T08:04:46.876Z,10544.00
2018-07-07T08:05:46.878Z,10628.00
2018-07-07T08:06:47.114Z,10700.00
2018-07-07T08:07:46.933Z,10756.00
2018-07-07T08:08:47.174Z,10832.00
2018-07-07T08:09:47.012Z,10912.00
2018-07-07T08:10:47.048Z,10980.00
2018-07-07T08:11:47.088Z,11060.00
2018-07-07T08:12:47.125Z,11144.00
2018-07-07T08:13:47.166Z,11252.00
2018-07-07T08:14:47.202Z,11168.00
2018-07-07T08:15:47.241Z,11264.00
2018-07-07T08:16:47.284Z,11540.00
2018-07-07T08:17:47.318Z,11632.00
2018-07-07T08:18:47.356Z,11744.00
2018-07-07T08:19:47.395Z,11844.00
2018-07-07T08:20:47.435Z,11944.00
2018-07-07T08:21:47.473Z,12088.00
2018-07-07T08:22:47.562Z,12184.00
2018-07-07T08:23:47.551Z,12240.00
2018-07-07T08:24:47.592Z,12348.00
2018-07-07T08:25:47.629Z,12432.00
2018-07-07T08:26:47.667Z,12520.00
2018-07-07T08:27:47.707Z,12620.00
2018-07-07T08:28:47.746Z,12712.00
2018-07-07T08:29:47.786Z,12784.00
2018-07-07T08:30:47.823Z,12892.00
2018-07-07T08:31:47.862Z,12980.00
2018-07-07T08:32:47.902Z,13080.00
2018-07-07T08:33:47.941Z,13232.00
2018-07-07T08:34:47.980Z,13384.00
2018-07-07T08:35:48.018Z,13456.00
2018-07-07T08:36:48.060Z,13548.00
2018-07-07T08:37:48.101Z,13688.00
2018-07-07T08:38:48.136Z,13784.00
2018-07-07T08:39:48.176Z,13872.00
2018-07-07T08:40:48.216Z,13976.00
2018-07-07T08:41:48.303Z,14164.00
2018-07-07T08:42:48.299Z,14328.00
2018-07-07T08:43:49.143Z,14412.00
2018-07-07T08:44:48.373Z,14456.00
2018-07-07T08:45:48.413Z,14648.00
2018-07-07T08:46:48.453Z,14772.00
2018-07-07T08:47:48.492Z,14884.00
2018-07-07T08:48:48.532Z,15040.00
2018-07-07T08:49:48.590Z,15188.00
2018-07-07T08:50:48.613Z,15304.00
2018-07-07T08:51:48.652Z,15444.00
2018-07-07T08:52:48.691Z,15616.00
2018-07-07T08:53:48.933Z,15760.00
2018-07-07T08:55:48.830Z,16072.00
2018-07-07T08:56:48.851Z,16208.00
2018-07-07T08:57:48.891Z,16324.00
2018-07-07T08:58:48.931Z,16436.00
2018-07-07T08:59:48.992Z,16592.00
2018-07-07T09:00:49.010Z,16772.00
2018-07-07T09:01:49.052Z,16932.00
2018-07-07T09:02:49.090Z,17160.00
2018-07-07T09:03:49.660Z,17204.00
2018-07-07T09:04:49.172Z,17304.00
2018-07-07T09:05:49.235Z,17388.00
2018-07-07T09:06:49.578Z,17556.00
2018-07-07T09:07:49.376Z,17800.00
2018-07-07T09:08:49.354Z,18400.00
2018-07-07T09:09:49.378Z,18592.00
2018-07-07T09:10:49.413Z,18720.00
2018-07-07T09:11:49.455Z,19136.00
2018-07-07T09:12:49.496Z,19456.00
2018-07-07T09:13:49.537Z,20000.00
2018-07-07T09:14:49.577Z,20640.00
2018-07-07T09:15:49.620Z,21088.00
2018-07-07T09:16:49.663Z,21504.00
2018-07-07T09:17:49.701Z,22240.00
2018-07-07T09:18:49.749Z,22432.00
2018-07-07T09:19:49.783Z,22528.00
2018-07-07T09:20:49.843Z,22752.00
2018-07-07T09:21:49.866Z,22624.00
2018-07-07T09:22:49.906Z,22272.00
2018-07-07T09:23:49.949Z,22176.00
2018-07-07T09:24:49.989Z,22208.00
2018-07-07T09:25:50.031Z,22368.00
2018-07-07T09:26:50.072Z,22432.00
2018-07-07T09:27:50.113Z,22144.00
2018-07-07T09:28:50.175Z,21728.00
2018-07-07T09:29:50.217Z,22368.00
2018-07-07T09:31:50.280Z,21728.00
2018-07-07T09:32:50.322Z,22816.00
2018-07-07T09:34:50.405Z,23008.00
2018-07-07T09:35:50.448Z,23744.00
2018-07-07T09:36:50.490Z,23840.00
2018-07-07T09:37:50.541Z,23904.00
2018-07-07T09:38:50.604Z,23360.00
2018-07-07T09:39:50.634Z,22784.00
2018-07-07T09:40:50.677Z,22176.00
2018-07-07T09:41:51.025Z,21824.00
2018-07-07T09:42:50.763Z,21632.00
2018-07-07T09:43:50.785Z,21696.00
2018-07-07T09:44:50.827Z,21824.00
2018-07-07T09:45:50.870Z,22016.00
2018-07-07T09:46:50.911Z,22240.00
2018-07-07T09:47:50.954Z,22240.00
2018-07-07T09:48:50.997Z,22368.00
2018-07-07T09:49:51.039Z,22432.00
2018-07-07T09:50:51.081Z,22528.00
2018-07-07T09:51:51.124Z,22432.00
2018-07-07T09:52:51.170Z,22336.00
2018-07-07T09:53:51.210Z,22304.00
2018-07-07T09:54:51.252Z,22368.00
2018-07-07T09:55:51.294Z,22560.00
2018-07-07T09:56:51.337Z,22688.00
2018-07-07T09:57:51.381Z,22944.00
2018-07-07T09:58:51.425Z,23040.00
2018-07-07T09:59:51.465Z,23008.00
2018-07-07T10:00:51.509Z,22912.00
2018-07-07T10:01:51.588Z,22976.00
2018-07-07T10:02:51.593Z,23232.00
2018-07-07T10:03:51.636Z,23488.00
2018-07-07T10:04:51.678Z,23776.00
2018-07-07T10:05:51.728Z,23808.00
2018-07-07T10:06:51.765Z,24128.00
2018-07-07T10:07:51.808Z,24256.00
2018-07-07T10:08:51.851Z,24352.00
2018-07-07T10:09:51.892Z,24352.00
2018-07-07T10:10:51.936Z,24480.00
2018-07-07T10:11:51.979Z,24672.00
2018-07-07T10:13:52.065Z,25088.00
2018-07-07T10:14:52.107Z,25312.00
2018-07-07T10:15:52.150Z,25440.00
2018-07-07T10:16:52.195Z,25536.00
2018-07-07T10:17:52.237Z,25536.00
2018-07-07T10:18:52.280Z,25536.00
2018-07-07T10:19:52.322Z,25568.00
2018-07-07T10:20:52.424Z,25696.00
2018-07-07T10:21:52.611Z,25824.00
2018-07-07T10:22:52.777Z,25888.00
2018-07-07T10:23:52.495Z,25952.00
2018-07-07T10:24:52.557Z,26080.00
2018-07-07T10:25:53.007Z,26336.00
2018-07-07T10:26:52.623Z,26656.00
2018-07-07T10:27:52.891Z,26848.00
2018-07-07T10:28:52.712Z,27232.00
2018-07-07T10:29:52.775Z,27168.00
2018-07-07T10:30:52.816Z,27040.00
2018-07-07T10:31:52.859Z,27136.00
2018-07-07T10:32:52.887Z,27488.00
2018-07-07T10:33:52.946Z,27808.00
2018-07-07T10:34:52.970Z,28000.00
2018-07-07T10:35:53.031Z,28288.00
2018-07-07T10:36:53.057Z,28544.00
2018-07-07T10:37:53.121Z,28768.00
2018-07-07T10:38:53.166Z,28896.00
2018-07-07T10:39:53.515Z,28864.00
2018-07-07T10:40:53.231Z,28992.00
2018-07-07T10:41:53.275Z,29216.00
2018-07-07T10:42:53.324Z,31264.00
2018-07-07T10:43:53.360Z,41600.00
2018-07-07T10:44:53.406Z,57952.00
2018-07-07T10:45:53.614Z,74752.00
2018-07-07T10:46:53.493Z,88832.00
2018-07-07T10:47:53.560Z,98688.00
2018-07-07T10:48:53.604Z,101024.00
2018-07-07T10:49:57.261Z,96992.00
2018-07-07T10:50:53.672Z,95232.00
2018-07-07T10:51:53.720Z,94400.00
2018-07-07T10:52:53.818Z,94336.00
2018-07-07T10:53:53.811Z,92192.00
2018-07-07T10:54:53.857Z,89216.00
2018-07-07T10:56:53.954Z,91744.00
2018-07-07T10:58:00.267Z,58304.00
2018-07-07T10:58:54.124Z,52544.00
2018-07-07T10:59:54.096Z,87104.00
2018-07-07T11:00:54.143Z,91392.00
2018-07-07T11:01:54.193Z,92928.00
2018-07-07T11:02:54.242Z,95552.00
2018-07-07T11:03:54.290Z,102496.00
2018-07-07T11:04:54.340Z,104256.00
2018-07-07T11:05:54.389Z,105024.00
2018-07-07T11:06:54.438Z,105856.00
2018-07-07T11:07:54.489Z,105344.00
2018-07-07T11:08:54.540Z,99328.00
2018-07-07T11:09:54.588Z,103104.00
2018-07-07T11:10:57.262Z,103168.00
2018-07-07T11:11:54.867Z,91040.00
2018-07-07T11:12:54.742Z,73952.00
2018-07-07T11:13:54.793Z,60160.00
2018-07-07T11:14:54.864Z,39744.00
2018-07-07T11:15:54.916Z,40672.00
2018-07-07T11:16:54.948Z,34560.00
2018-07-07T11:17:54.998Z,49632.00
2018-07-07T11:18:55.050Z,49184.00
2018-07-07T11:19:55.108Z,30592.00
2018-07-07T11:20:55.148Z,28800.00
2018-07-07T11:21:55.199Z,28736.00
2018-07-07T11:22:55.249Z,68384.00
2018-07-07T11:23:55.297Z,97760.00
2018-07-07T11:24:55.347Z,103424.00
2018-07-07T11:25:55.397Z,59360.00
2018-07-07T11:26:55.448Z,55200.00
2018-07-07T11:27:55.495Z,44416.00
2018-07-07T11:28:55.544Z,42176.00
2018-07-07T11:29:55.604Z,106880.00
2018-07-07T11:30:55.641Z,65248.00
2018-07-07T11:31:55.693Z,57888.00
2018-07-07T11:32:55.740Z,81408.00
2018-07-07T11:33:55.791Z,110784.00
2018-07-07T11:34:55.839Z,111936.00
2018-07-07T11:35:55.888Z,107424.00
2018-07-07T11:36:55.985Z,111040.00
2018-07-07T11:37:55.989Z,106176.00
2018-07-07T11:38:56.039Z,122464.00
2018-07-07T11:39:56.090Z,123296.00
2018-07-07T11:40:56.140Z,120896.00
2018-07-07T11:41:57.608Z,117504.00
2018-07-07T11:42:56.242Z,118656.00
2018-07-07T11:43:56.334Z,116640.00
2018-07-07T11:44:56.347Z,113920.00
2018-07-07T11:45:56.399Z,111072.00
2018-07-07T11:46:56.450Z,64768.00
2018-07-07T11:47:56.503Z,94304.00
2018-07-07T11:48:56.573Z,55104.00
2018-07-07T11:49:56.608Z,42464.00
2018-07-07T11:50:56.661Z,104800.00
2018-07-07T11:51:56.711Z,118016.00
2018-07-07T11:52:56.764Z,119040.00
2018-07-07T11:53:57.031Z,114592.00
2018-07-07T11:54:56.867Z,111648.00
2018-07-07T11:55:57.143Z,111840.00
2018-07-07T11:56:56.971Z,112992.00
2018-07-07T11:57:57.024Z,108416.00
2018-07-07T11:58:57.077Z,113312.00
2018-07-07T11:59:57.130Z,115296.00
2018-07-07T12:00:58.397Z,114944.00
2018-07-07T12:01:57.284Z,120192.00
2018-07-07T12:02:57.290Z,120576.00
2018-07-07T12:03:57.343Z,30112.00
2018-07-07T12:04:57.410Z,26176.00
2018-07-07T12:05:57.452Z,20864.00
2018-07-07T12:06:57.522Z,21952.00
2018-07-07T12:08:00.902Z,26240.00
2018-07-07T12:08:57.611Z,111264.00
2018-07-07T12:09:57.669Z,114496.00
2018-07-07T12:11:57.768Z,126080.00
2018-07-07T12:12:57.822Z,123072.00
2018-07-07T12:13:57.893Z,120672.00
2018-07-07T12:14:57.926Z,116704.00
2018-07-07T12:15:57.979Z,114848.00
2018-07-07T12:17:45.608Z,114144.00
2018-07-07T12:18:45.660Z,115584.00
2018-07-07T12:19:45.712Z,117632.00
2018-07-07T12:20:45.765Z,114336.00
2018-07-07T12:21:45.821Z,113568.00
2018-07-07T12:22:45.873Z,113376.00
2018-07-07T12:23:45.926Z,112928.00
2018-07-07T12:24:46.023Z,112384.00
2018-07-07T12:27:16.850Z,116480.00
2018-07-07T12:28:16.902Z,111552.00
2018-07-07T12:29:16.955Z,87904.00
2018-07-07T12:30:17.009Z,107680.00
2018-07-07T12:31:17.066Z,112928.00
2018-07-07T12:32:17.129Z,111040.00